Airfield :
LOGIN :

Register | Disclaimer

   EN    FR    IT 

 










Legend :    VFR   Marginal VFR   IFR   Intensive IFR   Very Intensive IFR
Visi :
Ceiling :
>= 8 km
>= 3000ft
5 to 8 km
1000 to 3000 ft
1500m to 5 km
500 to 1000 ft
800 to 1500m
200 to 500 ft
< 800m
< 200 ft
Symbols :   Thunderstorms  Fog  Heavy snow  Heavy precipitations  Wind > 20 kt
SIGMETs :     Misc.  Thunderstorms  Icing  Turbulence  Mountain Waves  Volcanic Ashes







- Airport Elevation : 302 ft
- IATA code : CGN


EDDK - Cologne Bonn

CURRENT METAR :
  • 192020Z 00000KT 9999 MIFG FEW022 09/08 Q1021 NOSIG

EXPIRED METARs :
  • 191950Z 13001KT 9999 MIFG FEW022 09/09 Q1020 NOSIG
  • 191920Z 14001KT 9999 MIFG FEW022 10/09 Q1020 NOSIG
  • 191850Z 00000KT 9999 MIFG NSC 10/09 Q1020 NOSIG
  • 191820Z 00000KT 9999 MIFG NSC 10/09 Q1020 NOSIG
  • 191750Z VRB02KT 9999 MIFG NSC 11/09 Q1019 NOSIG
  • 191720Z 33004KT 9999 FEW020 12/09 Q1019 NOSIG

TAF TAF EDDK
Valid from the 19 at 18:00 until the 21 at 00:00 UTC


191700Z 1918/2024 31007KT 9999 SCT030
BECMG 1918/1921 VRB03KT
PROB30
TEMPO 2005/2009 BKN013
BECMG 2009/2012 25005KT
BECMG 2016/2019 VRB03KT
No reported NOTAMs for that airfield.



MET'MAP, your aeronautical weather chart ! - Copyright ORBIFLY December 2007 - Disclaimer

ORBIFLY MET'MAP TEAM :

Programming & Development : Alexandra Zaïnal
Concept & Development : Baudouin d'Aumeries
Co-Development & Prog : Marc-Olivier Méhu
Technical & hardware support : Manuel Goepfert

Contact : metmap@orbifly.com




SOURCES & CREDITS :

   NOAA